WMKKVNKT

Guest
Details From WMKK - Kuala Lumpur Intl - Sepang
To VNKT - Kathmandu Tribhuvan Intl
Flight Number -
Tags Generated
Created
Modified
Stats Distance 1,766 nm / 3,270 km
Max Altitude 0 ft / 0 m
Waypoints 5
Social Downloads 1
Likes 0
Share VATSIM

Download

Looking for another format? Having issues loading an existing format? Contact us
Advertisement - Login to hide

Notes

Generated

Route

WMKK GOMAT BIKIK KAM16 VNKT

ID Type Via Altitude Latitude Longitude Leg Dist Tot Dist Heading (true) Name
O WMKK APT - 0 ft / 0 m 2.77828˚ 101.70172˚ - 0 nm - -
GOMAT FIX - 0 ft / 0 m 5.95333˚ 99.93889˚ 217 nm 217 nm 331° / 331° -
BIKIK FIX - 0 ft / 0 m 24.77969˚ 87.79736˚ 1329 nm 1547 nm 330° / 326° -
KAM16 FIX - 0 ft / 0 m 27.67070˚ 85.36706˚ 217 nm 1764 nm 324° / 322° -
O VNKT APT - 0 ft / 0 m 27.68381˚ 85.35342˚ 1 nm 1765 nm 317° / 317° -

Altitude Profile

Advertisement - Login to hide

Weather


0- 5 10 15 20 25 30 35+ Temperature / ° C

Clouds and Precipitation
Forecast for 2018-05-26 18:00 UTC. Updated 5 hours ago

Ground ~20,000 ft ~40,000 ft Winds

WMKK

Details ICAO WMKK (KUL)
Name Kuala Lumpur Intl - Sepang
Region Malaysia (Peninsular Malaysia)
Timezone Asia/Kuala_Lumpur (UTC+8.0)
Stats Elevation 70 ft / 21 m (AMSL)
Location 2.745578° 101.709913°
Runways 2
Magnetic Variation 0.004° E

METAR

WMKK 262200Z 00000KT 9999 FEW017CB SCT140 BKN280 25/24 Q1008 NOSIG

Decode

TAF

TAF WMKK 261100Z 2612/2718 20005KT 3000 TSRA FEW008 FEW017CB SCT020 BECMG 2614/2616 VRB02KT 8000 NSW FEW018 TEMPO 2707/2711 21008KT 4000 TSRA FEW012 FEW015CB

Decode

Departure Runways

ID Width Length Bearing (true) Bearing (mag) Surface Threshold Offset Overrun Length
14L 197 ft / 60 m 13,577 ft / 4,138 m 146.13° 146.13° Asphalt 500 ft / 152 m 0 ft / 0 m
14R 197 ft / 60 m 13,337 ft / 4,065 m 146.22° 146.22° Asphalt 500 ft / 152 m 0 ft / 0 m
32L 197 ft / 60 m 13,337 ft / 4,065 m 326.22° 326.22° Asphalt 500 ft / 152 m 0 ft / 0 m
32R 197 ft / 60 m 13,577 ft / 4,138 m 326.13° 326.13° Asphalt 500 ft / 152 m 0 ft / 0 m

VNKT

Details ICAO VNKT (KTM)
Name Kathmandu Tribhuvan Intl
Region Nepal
Timezone Asia/Kathmandu (UTC+5.8)
Stats Elevation 4,390 ft / 1,338 m (AMSL)
Location 27.696583° 85.359100°
Runways 1
Magnetic Variation 0.514° E

METAR

VNKT 262150Z 10003KT 6000 FEW020 20/18 Q1012 NOSIG

Decode

TAF

TAF VNKT 261700Z 2618/2718 VRB03KT 7000 FEW020 BECMG 2700/2702 VRB02KT 3000 BR FEW015 SCT100 BECMG 2703/2705 13003KT 6000 FEW015 SCT030 BECMG 2706/2708 24008KT 8000 FEW020 SCT030 BKN100 PROB30 2710/2716 VRB08KT 4000 -TSRA FEW025CB BECMG 2713/2714 VRB03KT 6000 FEW020 SCT030

Decode

Destination Runways

ID Width Length Bearing (true) Bearing (mag) Surface Threshold Offset Overrun Length
02 148 ft / 45 m 10,017 ft / 3,053 m 21.50° 20.99° Asphalt 0 ft / 0 m 0 ft / 0 m
20 148 ft / 45 m 10,017 ft / 3,053 m 201.51° 201.00° Asphalt 400 ft / 122 m 0 ft / 0 m

Popular Alternatives